createdAt,value
2017-02-15T00:00:28.525Z,0
2017-02-15T00:01:41.683Z,0
2017-02-15T00:02:54.760Z,0
2017-02-15T00:04:07.897Z,0
2017-02-15T00:05:20.272Z,0
2017-02-15T00:06:33.409Z,0
2017-02-15T00:07:46.511Z,0
2017-02-15T00:08:59.607Z,0
2017-02-15T00:10:12.330Z,0
2017-02-15T00:11:25.449Z,0
2017-02-15T00:12:38.557Z,0
2017-02-15T00:13:51.691Z,0
2017-02-15T00:15:04.806Z,0
2017-02-15T00:16:17.512Z,0
2017-02-15T00:17:30.612Z,0
2017-02-15T00:18:43.726Z,0
2017-02-15T00:19:56.897Z,0
2017-02-15T00:21:09.642Z,0
2017-02-15T00:22:22.769Z,0
2017-02-15T00:23:35.859Z,0
2017-02-15T00:24:48.930Z,0
2017-02-15T00:26:02.044Z,0
2017-02-15T00:27:14.756Z,0
2017-02-15T00:28:27.834Z,0
2017-02-15T00:29:40.961Z,0
2017-02-15T00:30:54.121Z,0
2017-02-15T00:32:07.203Z,0
2017-02-15T00:33:20.300Z,0
2017-02-15T00:34:33.389Z,0
2017-02-15T00:35:46.486Z,0
2017-02-15T00:36:59.255Z,0
2017-02-15T00:38:11.983Z,0
2017-02-15T00:39:25.091Z,0
2017-02-15T00:40:38.050Z,0
2017-02-15T00:41:51.120Z,0
2017-02-15T00:43:04.205Z,0
2017-02-15T00:44:16.945Z,0
2017-02-15T00:45:30.041Z,0
2017-02-15T00:46:43.127Z,0
2017-02-15T00:47:56.252Z,0
2017-02-15T00:49:09.432Z,0
2017-02-15T00:50:22.519Z,0
2017-02-15T00:51:35.245Z,0
2017-02-15T00:52:48.341Z,0
2017-02-15T00:54:01.419Z,0
2017-02-15T00:55:14.518Z,0
2017-02-15T00:56:27.564Z,0
2017-02-15T00:57:40.669Z,0
2017-02-15T00:58:53.763Z,0
2017-02-15T01:00:06.878Z,0
2017-02-15T01:01:19.924Z,0
2017-02-15T01:02:32.620Z,0
2017-02-15T01:03:45.692Z,0
2017-02-15T01:04:58.798Z,0
2017-02-15T01:06:11.907Z,0
2017-02-15T01:07:24.963Z,0
2017-02-15T01:08:37.707Z,0
2017-02-15T01:09:50.752Z,0
2017-02-15T01:11:03.797Z,0
2017-02-15T01:12:16.937Z,0
2017-02-15T01:13:29.990Z,0
2017-02-15T01:14:43.092Z,0
2017-02-15T01:15:56.204Z,0
2017-02-15T01:17:09.301Z,0
2017-02-15T01:18:22.374Z,0
2017-02-15T01:19:35.119Z,0
2017-02-15T01:20:48.250Z,0
2017-02-15T01:22:01.346Z,0
2017-02-15T01:23:14.440Z,0
2017-02-15T01:24:27.545Z,0
2017-02-15T01:25:40.722Z,0
2017-02-15T01:26:53.867Z,0
2017-02-15T01:28:06.997Z,0
2017-02-15T01:29:19.713Z,0
2017-02-15T01:30:32.453Z,0
2017-02-15T01:31:45.175Z,0
2017-02-15T01:32:58.317Z,0
2017-02-15T01:34:11.422Z,0
2017-02-15T01:35:24.483Z,0
2017-02-15T01:36:37.192Z,0
2017-02-15T01:37:50.289Z,0
2017-02-15T01:39:03.438Z,0
2017-02-15T01:40:16.183Z,0
2017-02-15T01:41:29.294Z,0
2017-02-15T01:42:42.420Z,0
2017-02-15T01:43:55.742Z,0
2017-02-15T01:45:08.843Z,0
2017-02-15T01:46:21.953Z,0
2017-02-15T01:47:35.066Z,0
2017-02-15T01:48:48.177Z,0
2017-02-15T01:50:01.264Z,0
2017-02-15T01:51:14.041Z,0
2017-02-15T01:52:27.182Z,0
2017-02-15T01:53:40.311Z,0
2017-02-15T01:54:53.422Z,0
2017-02-15T01:56:06.543Z,0
2017-02-15T01:57:19.258Z,0
2017-02-15T01:58:32.328Z,0
2017-02-15T01:59:45.438Z,0
2017-02-15T02:00:58.576Z,0
2017-02-15T02:02:11.720Z,0
2017-02-15T02:03:24.820Z,0
2017-02-15T02:04:37.889Z,0
2017-02-15T02:05:51.004Z,0
2017-02-15T02:07:04.050Z,0
2017-02-15T02:08:17.121Z,0
2017-02-15T02:09:30.228Z,0
2017-02-15T02:10:43.594Z,0
2017-02-15T02:11:56.690Z,0
2017-02-15T02:13:09.779Z,0
2017-02-15T02:14:22.880Z,0
2017-02-15T02:15:35.584Z,0
2017-02-15T02:16:48.705Z,0
2017-02-15T02:18:01.819Z,0
2017-02-15T02:19:14.540Z,0
2017-02-15T02:20:27.628Z,0
2017-02-15T02:21:39.963Z,0
2017-02-15T02:22:53.079Z,0
2017-02-15T02:24:06.130Z,0
2017-02-15T02:25:19.268Z,0
2017-02-15T02:26:32.339Z,0
2017-02-15T02:27:45.017Z,0
2017-02-15T02:28:58.157Z,0
2017-02-15T02:30:11.301Z,0
2017-02-15T02:31:24.005Z,0
2017-02-15T02:32:36.745Z,0
2017-02-15T02:33:49.817Z,0
2017-02-15T02:35:02.955Z,0
2017-02-15T02:36:15.306Z,0
2017-02-15T02:37:27.987Z,0
2017-02-15T02:38:40.697Z,0
2017-02-15T02:39:53.817Z,0
2017-02-15T02:41:06.518Z,0
2017-02-15T02:42:19.249Z,0
2017-02-15T02:43:32.324Z,0
2017-02-15T02:44:45.470Z,0
2017-02-15T02:45:58.631Z,0
2017-02-15T02:47:11.745Z,0
2017-02-15T02:48:24.797Z,0
2017-02-15T02:49:37.929Z,0
2017-02-15T02:50:51.025Z,0
2017-02-15T02:52:04.138Z,0
2017-02-15T02:53:16.858Z,0
2017-02-15T02:54:29.937Z,0
2017-02-15T02:55:43.022Z,0
2017-02-15T02:56:56.124Z,0
2017-02-15T02:58:09.216Z,0
2017-02-15T02:59:22.309Z,0
2017-02-15T03:00:35.373Z,0
2017-02-15T03:01:48.476Z,0
2017-02-15T03:03:01.545Z,0
2017-02-15T03:04:14.647Z,0
2017-02-15T03:05:27.808Z,0
2017-02-15T03:06:40.508Z,0
2017-02-15T03:07:53.617Z,0
2017-02-15T03:09:06.693Z,0
2017-02-15T03:10:19.865Z,0
2017-02-15T03:11:32.969Z,0
2017-02-15T03:12:46.090Z,0
2017-02-15T03:13:59.185Z,0
2017-02-15T03:15:12.345Z,0
2017-02-15T03:16:25.451Z,0
2017-02-15T03:17:38.594Z,0
2017-02-15T03:18:51.654Z,0
2017-02-15T03:20:04.784Z,0
2017-02-15T03:21:17.678Z,0
2017-02-15T03:22:30.381Z,0
2017-02-15T03:23:42.690Z,0
2017-02-15T03:24:55.796Z,0
2017-02-15T03:26:08.924Z,0
2017-02-15T03:27:22.012Z,0
2017-02-15T03:28:35.072Z,0
2017-02-15T03:29:48.124Z,0
2017-02-15T03:31:01.189Z,0
2017-02-15T03:32:14.265Z,0
2017-02-15T03:33:27.049Z,0
2017-02-15T03:34:39.783Z,0
2017-02-15T03:35:52.830Z,0
2017-02-15T03:37:05.901Z,0
2017-02-15T03:38:19.034Z,0
2017-02-15T03:39:32.141Z,0
2017-02-15T03:40:45.214Z,0
2017-02-15T03:41:58.312Z,0
2017-02-15T03:43:11.064Z,0
2017-02-15T03:44:24.163Z,0
2017-02-15T03:45:36.928Z,0
2017-02-15T03:46:50.024Z,0
2017-02-15T03:48:03.157Z,0
2017-02-15T03:49:15.865Z,0
2017-02-15T03:50:28.981Z,0
2017-02-15T03:51:41.675Z,0
2017-02-15T03:52:54.782Z,0
2017-02-15T03:54:07.898Z,0
2017-02-15T03:55:19.813Z,0
2017-02-15T03:56:32.978Z,0
2017-02-15T03:57:46.062Z,0
2017-02-15T03:58:59.102Z,0
2017-02-15T04:00:12.156Z,0
2017-02-15T04:01:24.911Z,0
2017-02-15T04:02:38.047Z,0
2017-02-15T04:03:51.180Z,0
2017-02-15T04:05:03.911Z,0
2017-02-15T04:06:16.632Z,0
2017-02-15T04:07:29.771Z,0
2017-02-15T04:08:42.476Z,0
2017-02-15T04:09:55.571Z,0
2017-02-15T04:11:08.660Z,0
2017-02-15T04:12:21.764Z,0
2017-02-15T04:13:34.901Z,0
2017-02-15T04:14:47.649Z,0
2017-02-15T04:16:00.996Z,0
2017-02-15T04:17:14.091Z,0
2017-02-15T04:18:27.154Z,0
2017-02-15T04:19:39.824Z,0
2017-02-15T04:20:52.907Z,0
2017-02-15T04:22:06.005Z,0
2017-02-15T04:23:19.118Z,0
2017-02-15T04:24:32.208Z,0
2017-02-15T04:25:45.316Z,0
2017-02-15T04:26:58.470Z,0
2017-02-15T04:28:11.165Z,0
2017-02-15T04:29:23.893Z,0
2017-02-15T04:30:36.658Z,0
2017-02-15T04:31:48.989Z,0
2017-02-15T04:33:02.029Z,0
2017-02-15T04:34:14.709Z,0
2017-02-15T04:35:27.821Z,0
2017-02-15T04:36:40.878Z,0
2017-02-15T04:37:54.028Z,0
2017-02-15T04:39:07.145Z,0
2017-02-15T04:40:19.863Z,0
2017-02-15T04:41:32.989Z,0
2017-02-15T04:42:46.081Z,0
2017-02-15T04:43:59.199Z,0
2017-02-15T04:45:11.905Z,0
2017-02-15T04:46:24.960Z,0
2017-02-15T04:47:38.069Z,0
2017-02-15T04:48:51.196Z,0
2017-02-15T04:50:04.313Z,0
2017-02-15T04:51:17.012Z,0
2017-02-15T04:52:30.106Z,0
2017-02-15T04:53:43.216Z,0
2017-02-15T04:54:56.312Z,0
2017-02-15T04:56:09.441Z,0
2017-02-15T04:57:22.181Z,0
2017-02-15T04:58:35.269Z,0
2017-02-15T04:59:48.628Z,0
2017-02-15T05:01:01.761Z,0
2017-02-15T05:02:14.832Z,0
2017-02-15T05:03:27.960Z,0
2017-02-15T05:04:41.072Z,0
2017-02-15T05:05:54.138Z,0
2017-02-15T05:07:07.259Z,0
2017-02-15T05:08:19.981Z,0
2017-02-15T05:09:33.120Z,0
2017-02-15T05:10:46.247Z,0
2017-02-15T05:11:59.334Z,0
2017-02-15T05:13:12.382Z,0
2017-02-15T05:14:25.096Z,0
2017-02-15T05:15:37.795Z,0
2017-02-15T05:16:50.896Z,0
2017-02-15T05:18:04.009Z,0
2017-02-15T05:19:16.724Z,0
2017-02-15T05:20:29.419Z,0
2017-02-15T05:21:42.140Z,0
2017-02-15T05:22:55.251Z,0
2017-02-15T05:24:08.391Z,0
2017-02-15T05:25:21.108Z,0
2017-02-15T05:26:34.243Z,0
2017-02-15T05:27:47.344Z,0
2017-02-15T05:29:00.435Z,0
2017-02-15T05:30:13.162Z,0
2017-02-15T05:31:26.249Z,0
2017-02-15T05:32:39.343Z,0
2017-02-15T05:33:52.073Z,0
2017-02-15T05:35:05.162Z,0
2017-02-15T05:36:18.256Z,0
2017-02-15T05:37:31.636Z,0
2017-02-15T05:38:44.347Z,0
2017-02-15T05:39:57.479Z,0
2017-02-15T05:41:10.574Z,0
2017-02-15T05:42:23.281Z,0
2017-02-15T05:43:36.347Z,0
2017-02-15T05:44:49.418Z,0
2017-02-15T05:46:02.539Z,4
2017-02-15T05:47:14.835Z,0
2017-02-15T05:48:27.924Z,0
2017-02-15T05:49:41.035Z,4
2017-02-15T05:50:54.105Z,4
2017-02-15T05:52:07.169Z,4
2017-02-15T05:53:19.890Z,8
2017-02-15T05:54:32.589Z,4
2017-02-15T05:55:45.265Z,8
2017-02-15T05:56:58.415Z,8
2017-02-15T05:58:11.134Z,12
2017-02-15T05:59:24.127Z,16
2017-02-15T06:00:37.217Z,20
2017-02-15T06:01:49.937Z,24
2017-02-15T06:03:03.039Z,32
2017-02-15T06:04:15.770Z,36
2017-02-15T06:05:28.483Z,48
2017-02-15T06:06:41.595Z,56
2017-02-15T06:07:54.716Z,64
2017-02-15T06:09:07.804Z,80
2017-02-15T06:10:20.936Z,92
2017-02-15T06:11:33.611Z,112
2017-02-15T06:12:46.698Z,128
2017-02-15T06:13:59.413Z,144
2017-02-15T06:15:12.515Z,168
2017-02-15T06:16:25.638Z,188
2017-02-15T06:17:38.275Z,216
2017-02-15T06:18:51.372Z,240
2017-02-15T06:20:04.111Z,272
2017-02-15T06:21:16.889Z,300
2017-02-15T06:22:29.941Z,336
2017-02-15T06:23:43.063Z,372
2017-02-15T06:24:56.163Z,408
2017-02-15T06:26:09.487Z,452
2017-02-15T06:27:22.593Z,488
2017-02-15T06:28:35.685Z,532
2017-02-15T06:29:48.368Z,576
2017-02-15T06:31:01.436Z,624
2017-02-15T06:32:14.558Z,668
2017-02-15T06:33:27.656Z,720
2017-02-15T06:34:40.805Z,772
2017-02-15T06:35:53.528Z,816
2017-02-15T06:37:06.591Z,872
2017-02-15T06:38:19.631Z,924
2017-02-15T06:39:32.719Z,972
2017-02-15T06:40:45.879Z,1028
2017-02-15T06:41:58.975Z,1080
2017-02-15T06:43:12.077Z,1132
2017-02-15T06:44:25.167Z,1188
2017-02-15T06:45:38.245Z,1244
2017-02-15T06:46:51.359Z,1296
2017-02-15T06:48:04.448Z,1348
2017-02-15T06:49:17.145Z,1396
2017-02-15T06:50:30.227Z,1452
2017-02-15T06:51:43.325Z,1500
2017-02-15T06:52:56.421Z,1552
2017-02-15T06:54:09.544Z,1604
2017-02-15T06:55:22.253Z,1660
2017-02-15T06:56:35.326Z,1712
2017-02-15T06:57:48.410Z,1764
2017-02-15T06:59:01.517Z,1816
2017-02-15T07:00:14.638Z,1872
2017-02-15T07:01:27.759Z,1916
2017-02-15T07:02:40.893Z,1960
2017-02-15T07:03:53.978Z,2008
2017-02-15T07:05:07.066Z,2056
2017-02-15T07:06:19.386Z,2096
2017-02-15T07:07:32.071Z,2136
2017-02-15T07:08:45.142Z,2172
2017-02-15T07:09:58.280Z,2212
2017-02-15T07:11:10.989Z,2248
2017-02-15T07:12:24.080Z,2288
2017-02-15T07:13:37.195Z,2336
2017-02-15T07:14:49.889Z,2376
2017-02-15T07:16:02.998Z,2412
2017-02-15T07:17:16.104Z,2452
2017-02-15T07:18:29.226Z,2492
2017-02-15T07:19:42.530Z,2532
2017-02-15T07:20:55.650Z,2580
2017-02-15T07:22:08.383Z,2620
2017-02-15T07:23:21.103Z,2656
2017-02-15T07:24:33.425Z,2704
2017-02-15T07:25:46.529Z,2740
2017-02-15T07:26:59.605Z,2776
2017-02-15T07:28:12.737Z,2820
2017-02-15T07:29:25.833Z,2852
2017-02-15T07:30:38.987Z,2892
2017-02-15T07:31:51.712Z,2924
2017-02-15T07:33:04.864Z,2952
2017-02-15T07:34:17.959Z,2980
2017-02-15T07:35:31.057Z,3000
2017-02-15T07:36:44.145Z,3016
2017-02-15T07:37:56.828Z,3024
2017-02-15T07:39:09.883Z,3036
2017-02-15T07:40:22.615Z,3056
2017-02-15T07:41:36.004Z,3084
2017-02-15T07:42:49.112Z,3120
2017-02-15T07:44:02.183Z,3148
2017-02-15T07:45:15.260Z,3180
2017-02-15T07:46:28.343Z,3216
2017-02-15T07:47:41.454Z,3244
2017-02-15T07:48:54.543Z,3292
2017-02-15T07:50:07.612Z,3332
2017-02-15T07:51:20.695Z,3376
2017-02-15T07:52:33.844Z,3400
2017-02-15T07:53:46.947Z,3436
2017-02-15T07:55:00.115Z,3440
2017-02-15T07:56:13.204Z,3476
2017-02-15T07:57:26.294Z,3488
2017-02-15T07:58:39.366Z,3544
2017-02-15T07:59:52.504Z,3584
2017-02-15T08:01:05.600Z,3588
2017-02-15T08:02:17.928Z,3624
2017-02-15T08:03:31.287Z,3656
2017-02-15T08:04:44.338Z,3668
2017-02-15T08:05:57.439Z,3700
2017-02-15T08:07:10.562Z,3732
2017-02-15T08:08:23.262Z,3736
2017-02-15T08:09:36.378Z,3728
2017-02-15T08:10:49.449Z,3752
2017-02-15T08:12:02.551Z,3748
2017-02-15T08:13:15.645Z,3760
2017-02-15T08:14:28.787Z,3784
2017-02-15T08:15:41.850Z,3792
2017-02-15T08:16:54.570Z,3824
2017-02-15T08:18:07.650Z,3856
2017-02-15T08:19:20.688Z,3884
2017-02-15T08:20:33.767Z,3900
2017-02-15T08:21:46.935Z,3896
2017-02-15T08:22:59.657Z,3904
2017-02-15T08:24:12.791Z,3916
2017-02-15T08:25:25.916Z,3892
2017-02-15T08:26:39.031Z,3896
2017-02-15T08:27:51.765Z,3892
2017-02-15T08:29:04.837Z,3912
2017-02-15T08:30:17.940Z,3916
2017-02-15T08:31:31.066Z,3920
2017-02-15T08:32:43.829Z,3936
2017-02-15T08:33:57.001Z,3976
2017-02-15T08:35:09.718Z,3960
2017-02-15T08:36:22.446Z,3968
2017-02-15T08:37:35.547Z,3968
2017-02-15T08:38:48.654Z,3984
2017-02-15T08:40:01.760Z,3972
2017-02-15T08:41:14.863Z,4012
2017-02-15T08:42:28.034Z,4024
2017-02-15T08:43:40.761Z,4048
2017-02-15T08:44:53.458Z,4068
2017-02-15T08:46:06.565Z,4044
2017-02-15T08:47:18.925Z,4056
2017-02-15T08:48:32.026Z,4072
2017-02-15T08:49:45.082Z,4092
2017-02-15T08:50:58.213Z,4080
2017-02-15T08:52:11.334Z,4072
2017-02-15T08:53:24.460Z,4064
2017-02-15T08:54:37.149Z,4072
2017-02-15T08:55:50.287Z,4040
2017-02-15T08:57:02.604Z,4072
2017-02-15T08:58:15.319Z,4072
2017-02-15T08:59:28.442Z,4072
2017-02-15T09:00:41.535Z,4080
2017-02-15T09:01:54.643Z,4088
2017-02-15T09:03:07.770Z,4116
2017-02-15T09:04:20.465Z,4044
2017-02-15T09:05:33.563Z,4124
2017-02-15T09:06:46.683Z,4168
2017-02-15T09:07:59.768Z,4100
2017-02-15T09:09:12.462Z,4124
2017-02-15T09:10:25.571Z,4112
2017-02-15T09:11:38.740Z,4100
2017-02-15T09:12:51.845Z,4160
2017-02-15T09:14:04.945Z,4148
2017-02-15T09:15:18.061Z,4160
2017-02-15T09:16:30.821Z,4216
2017-02-15T09:17:43.923Z,4208
2017-02-15T09:18:57.009Z,4208
2017-02-15T09:20:10.116Z,4252
2017-02-15T09:21:23.235Z,4224
2017-02-15T09:22:36.322Z,4272
2017-02-15T09:23:49.459Z,4232
2017-02-15T09:25:02.556Z,4216
2017-02-15T09:26:14.879Z,4252
2017-02-15T09:27:27.980Z,4248
2017-02-15T09:28:40.643Z,4256
2017-02-15T09:29:53.709Z,4264
2017-02-15T09:31:06.857Z,4264
2017-02-15T09:32:19.545Z,4252
2017-02-15T09:33:32.665Z,4268
2017-02-15T09:34:45.799Z,4256
2017-02-15T09:35:58.920Z,4288
2017-02-15T09:37:12.086Z,4352
2017-02-15T09:38:25.226Z,4400
2017-02-15T09:39:38.322Z,4388
2017-02-15T09:40:51.459Z,4392
2017-02-15T09:42:04.620Z,4384
2017-02-15T09:43:17.314Z,4372
2017-02-15T09:44:30.417Z,4428
2017-02-15T09:45:43.532Z,4400
2017-02-15T09:46:56.289Z,4416
2017-02-15T09:48:09.392Z,4436
2017-02-15T09:49:22.112Z,4476
2017-02-15T09:50:34.845Z,4448
2017-02-15T09:51:47.947Z,4388
2017-02-15T09:53:01.049Z,4404
2017-02-15T09:54:14.182Z,4420
2017-02-15T09:55:26.916Z,4388
2017-02-15T09:56:40.041Z,4404
2017-02-15T09:57:53.027Z,4384
2017-02-15T09:59:06.112Z,4400
2017-02-15T10:00:18.885Z,4356
2017-02-15T10:01:31.595Z,4392
2017-02-15T10:02:44.721Z,4348
2017-02-15T10:03:57.803Z,4360
2017-02-15T10:05:10.503Z,4412
2017-02-15T10:06:23.637Z,4440
2017-02-15T10:07:36.775Z,4392
2017-02-15T10:08:49.879Z,4416
2017-02-15T10:10:02.997Z,4372
2017-02-15T10:11:15.687Z,4388
2017-02-15T10:12:28.762Z,4400
2017-02-15T10:13:41.865Z,4432
2017-02-15T10:14:54.976Z,4428
2017-02-15T10:16:08.077Z,4392
2017-02-15T10:17:21.249Z,4400
2017-02-15T10:18:33.962Z,4400
2017-02-15T10:19:47.075Z,4432
2017-02-15T10:21:00.179Z,4432
2017-02-15T10:22:13.281Z,4464
2017-02-15T10:23:26.032Z,4444
2017-02-15T10:24:39.169Z,4400
2017-02-15T10:25:52.250Z,4440
2017-02-15T10:27:05.358Z,4440
2017-02-15T10:28:18.048Z,4428
2017-02-15T10:29:31.180Z,4488
2017-02-15T10:30:44.279Z,4476
2017-02-15T10:31:57.069Z,4544
2017-02-15T10:33:10.176Z,4524
2017-02-15T10:34:22.908Z,4580
2017-02-15T10:35:36.059Z,4568
2017-02-15T10:36:49.119Z,4564
2017-02-15T10:38:02.234Z,4628
2017-02-15T10:39:14.976Z,4676
2017-02-15T10:40:28.052Z,4664
2017-02-15T10:41:41.153Z,4672
2017-02-15T10:42:54.287Z,4660
2017-02-15T10:44:07.433Z,4680
2017-02-15T10:45:20.122Z,4740
2017-02-15T10:46:32.869Z,4756
2017-02-15T10:47:45.616Z,4756
2017-02-15T10:48:58.711Z,4732
2017-02-15T10:50:11.399Z,4748
2017-02-15T10:51:24.163Z,4772
2017-02-15T10:52:36.917Z,4796
2017-02-15T10:53:50.030Z,4836
2017-02-15T10:55:02.796Z,4852
2017-02-15T10:56:15.562Z,4864
2017-02-15T10:57:28.262Z,4888
2017-02-15T10:58:41.352Z,4868
2017-02-15T10:59:54.498Z,4864
2017-02-15T11:01:07.618Z,4872
2017-02-15T11:02:20.746Z,4884
2017-02-15T11:03:32.717Z,4896
2017-02-15T11:04:45.464Z,4868
2017-02-15T11:05:58.610Z,4864
2017-02-15T11:07:11.756Z,4836
2017-02-15T11:08:24.822Z,4804
2017-02-15T11:09:37.954Z,4756
2017-02-15T11:10:51.111Z,4748
2017-02-15T11:12:04.225Z,4804
2017-02-15T11:13:16.940Z,4824
2017-02-15T11:14:30.082Z,4800
2017-02-15T11:15:42.791Z,4812
2017-02-15T11:16:55.917Z,4828
2017-02-15T11:18:09.063Z,4832
2017-02-15T11:19:22.182Z,4856
2017-02-15T11:20:35.330Z,4884
2017-02-15T11:21:48.468Z,4860
2017-02-15T11:23:01.626Z,4792
2017-02-15T11:24:14.390Z,4760
2017-02-15T11:25:27.519Z,4796
2017-02-15T11:26:40.640Z,4812
2017-02-15T11:27:53.330Z,4804
2017-02-15T11:29:06.419Z,4768
2017-02-15T11:30:19.520Z,4756
2017-02-15T11:31:32.310Z,4768
2017-02-15T11:32:45.387Z,4756
2017-02-15T11:33:58.102Z,4768
2017-02-15T11:35:10.873Z,4804
2017-02-15T11:36:24.032Z,4828
2017-02-15T11:37:37.144Z,4840
2017-02-15T11:38:50.225Z,4824
2017-02-15T11:40:02.587Z,4844
2017-02-15T11:41:15.260Z,4824
2017-02-15T11:42:28.388Z,4832
2017-02-15T11:43:41.519Z,4824
2017-02-15T11:44:54.628Z,4828
2017-02-15T11:46:07.385Z,4800
2017-02-15T11:47:20.131Z,4784
2017-02-15T11:48:32.836Z,4800
2017-02-15T11:49:45.955Z,4824
2017-02-15T11:50:59.058Z,4832
2017-02-15T11:52:11.825Z,4836
2017-02-15T11:53:24.567Z,4824
2017-02-15T11:54:37.696Z,4824
2017-02-15T11:55:50.842Z,4808
2017-02-15T11:57:03.924Z,4748
2017-02-15T11:58:16.638Z,4748
2017-02-15T11:59:29.384Z,4752
2017-02-15T12:00:41.795Z,4704
2017-02-15T12:01:54.918Z,4668
2017-02-15T12:03:08.031Z,4648
2017-02-15T12:04:20.774Z,4624
2017-02-15T12:05:33.885Z,4592
2017-02-15T12:06:46.625Z,4600
2017-02-15T12:07:59.343Z,4608
2017-02-15T12:09:12.122Z,4656
2017-02-15T12:10:25.245Z,4656
2017-02-15T12:11:38.350Z,4676
2017-02-15T12:12:51.459Z,4704
2017-02-15T12:14:04.552Z,4732
2017-02-15T12:15:17.313Z,4708
2017-02-15T12:16:30.442Z,4632
2017-02-15T12:17:43.561Z,4572
2017-02-15T12:18:56.690Z,4564
2017-02-15T12:20:09.807Z,4560
2017-02-15T12:21:22.932Z,4540
2017-02-15T12:22:36.100Z,4536
2017-02-15T12:23:49.254Z,4520
2017-02-15T12:25:02.363Z,4500
2017-02-15T12:26:15.052Z,4496
2017-02-15T12:27:28.146Z,4464
2017-02-15T12:28:41.248Z,4460
2017-02-15T12:29:54.370Z,4428
2017-02-15T12:31:07.533Z,4476
2017-02-15T12:32:19.891Z,4488
2017-02-15T12:33:32.984Z,4488
2017-02-15T12:34:46.130Z,4488
2017-02-15T12:35:59.268Z,4500
2017-02-15T12:37:12.413Z,4476
2017-02-15T12:38:25.159Z,4472
2017-02-15T12:39:38.293Z,4456
2017-02-15T12:40:51.401Z,4468
2017-02-15T12:42:04.516Z,4496
2017-02-15T12:43:17.225Z,4512
2017-02-15T12:44:30.388Z,4512
2017-02-15T12:45:43.496Z,4532
2017-02-15T12:46:56.585Z,4528
2017-02-15T12:48:09.709Z,4484
2017-02-15T12:49:22.781Z,4412
2017-02-15T12:50:35.923Z,4424
2017-02-15T12:51:49.045Z,4384
2017-02-15T12:53:01.785Z,4344
2017-02-15T12:54:14.894Z,4348
2017-02-15T12:55:28.034Z,4348
2017-02-15T12:56:41.130Z,4336
2017-02-15T12:57:54.271Z,4344
2017-02-15T12:59:07.364Z,4348
2017-02-15T13:00:20.076Z,4356
2017-02-15T13:01:33.232Z,4376
2017-02-15T13:02:46.302Z,4404
2017-02-15T13:03:59.447Z,4416
2017-02-15T13:05:12.575Z,4396
2017-02-15T13:06:25.679Z,4380
2017-02-15T13:07:38.849Z,4368
2017-02-15T13:08:51.959Z,4344
2017-02-15T13:10:04.693Z,4316
2017-02-15T13:11:17.397Z,4296
2017-02-15T13:12:30.557Z,4284
2017-02-15T13:13:43.708Z,4252
2017-02-15T13:14:56.886Z,4208
2017-02-15T13:16:09.944Z,4208
2017-02-15T13:17:23.033Z,4200
2017-02-15T13:18:35.731Z,4176
2017-02-15T13:19:48.794Z,4180
2017-02-15T13:21:01.890Z,4180
2017-02-15T13:22:14.624Z,4140
2017-02-15T13:23:27.363Z,4148
2017-02-15T13:24:40.134Z,4156
2017-02-15T13:25:52.843Z,4112
2017-02-15T13:27:05.985Z,4104
2017-02-15T13:28:18.685Z,4100
2017-02-15T13:29:31.469Z,4092
2017-02-15T13:30:44.557Z,4072
2017-02-15T13:31:57.286Z,4072
2017-02-15T13:33:10.014Z,4060
2017-02-15T13:34:23.150Z,4060
2017-02-15T13:35:36.278Z,4044
2017-02-15T13:36:49.400Z,4036
2017-02-15T13:38:02.553Z,4020
2017-02-15T13:39:15.284Z,4016
2017-02-15T13:40:28.424Z,3988
2017-02-15T13:41:41.828Z,3932
2017-02-15T13:42:54.976Z,3928
2017-02-15T13:44:08.053Z,3928
2017-02-15T13:45:20.766Z,3904
2017-02-15T13:46:33.879Z,3896
2017-02-15T13:47:46.963Z,3900
2017-02-15T13:49:00.095Z,3880
2017-02-15T13:50:12.822Z,3860
2017-02-15T13:51:25.950Z,3840
2017-02-15T13:52:39.096Z,3816
2017-02-15T13:53:52.185Z,3812
2017-02-15T13:55:05.294Z,3784
2017-02-15T13:56:17.627Z,3776
2017-02-15T13:57:30.749Z,3764
2017-02-15T13:58:43.903Z,3748
2017-02-15T13:59:57.072Z,3740
2017-02-15T14:01:10.262Z,3708
2017-02-15T14:02:22.642Z,3716
2017-02-15T14:03:35.369Z,3708
2017-02-15T14:04:48.500Z,3696
2017-02-15T14:06:01.653Z,3700
2017-02-15T14:07:14.411Z,3664
2017-02-15T14:08:27.193Z,3648
2017-02-15T14:09:40.334Z,3632
2017-02-15T14:10:53.490Z,3616
2017-02-15T14:12:06.582Z,3624
2017-02-15T14:13:19.319Z,3604
2017-02-15T14:14:32.058Z,3572
2017-02-15T14:15:44.794Z,3540
2017-02-15T14:16:57.940Z,3540
2017-02-15T14:18:11.036Z,3512
2017-02-15T14:19:24.442Z,3504
2017-02-15T14:20:37.220Z,3500
2017-02-15T14:21:50.334Z,3488
2017-02-15T14:23:02.674Z,3448
2017-02-15T14:24:15.821Z,3432
2017-02-15T14:25:28.962Z,3408
2017-02-15T14:26:42.074Z,3392
2017-02-15T14:27:55.227Z,3388
2017-02-15T14:29:08.390Z,3380
2017-02-15T14:30:20.371Z,3368
2017-02-15T14:31:33.502Z,3356
2017-02-15T14:32:46.580Z,3344
2017-02-15T14:33:59.744Z,3316
2017-02-15T14:35:12.846Z,3300
2017-02-15T14:36:25.199Z,3284
2017-02-15T14:37:37.962Z,3260
2017-02-15T14:38:51.101Z,3244
2017-02-15T14:40:04.206Z,3220
2017-02-15T14:41:16.976Z,3192
2017-02-15T14:42:30.097Z,3176
2017-02-15T14:43:42.816Z,3164
2017-02-15T14:44:55.548Z,3136
2017-02-15T14:46:08.707Z,3112
2017-02-15T14:47:21.406Z,3080
2017-02-15T14:48:34.531Z,3064
2017-02-15T14:49:47.245Z,3044
2017-02-15T14:50:59.942Z,3024
2017-02-15T14:52:13.045Z,3000
2017-02-15T14:53:26.115Z,2968
2017-02-15T14:54:39.256Z,2948
2017-02-15T14:55:52.401Z,2912
2017-02-15T14:57:05.525Z,2876
2017-02-15T14:58:18.635Z,2860
2017-02-15T14:59:31.389Z,2844
2017-02-15T15:00:44.503Z,2812
2017-02-15T15:01:57.648Z,2776
2017-02-15T15:03:10.745Z,2752
2017-02-15T15:04:23.072Z,2728
2017-02-15T15:05:35.850Z,2700
2017-02-15T15:06:47.784Z,2688
2017-02-15T15:08:00.922Z,2664
2017-02-15T15:09:13.638Z,2632
2017-02-15T15:10:26.409Z,2600
2017-02-15T15:11:39.082Z,2572
2017-02-15T15:12:52.220Z,2544
2017-02-15T15:14:04.942Z,2524
2017-02-15T15:15:18.062Z,2500
2017-02-15T15:16:31.142Z,2468
2017-02-15T15:17:44.233Z,2428
2017-02-15T15:18:57.330Z,2400
2017-02-15T15:20:10.052Z,2360
2017-02-15T15:21:23.223Z,2332
2017-02-15T15:22:36.374Z,2300
2017-02-15T15:23:49.125Z,2268
2017-02-15T15:25:02.221Z,2236
2017-02-15T15:26:14.957Z,2192
2017-02-15T15:27:28.121Z,2148
2017-02-15T15:28:40.848Z,2108
2017-02-15T15:29:53.974Z,2072
2017-02-15T15:31:07.114Z,2036
2017-02-15T15:32:20.188Z,1992
2017-02-15T15:33:33.292Z,1956
2017-02-15T15:34:46.423Z,1916
2017-02-15T15:35:59.566Z,1872
2017-02-15T15:37:12.661Z,1832
2017-02-15T15:38:25.783Z,1788
2017-02-15T15:39:38.851Z,1748
2017-02-15T15:40:51.803Z,1704
2017-02-15T15:42:04.877Z,1656
2017-02-15T15:43:17.691Z,1612
2017-02-15T15:44:30.454Z,1568
2017-02-15T15:45:43.526Z,1524
2017-02-15T15:46:56.351Z,1480
2017-02-15T15:48:09.481Z,1432
2017-02-15T15:49:22.590Z,1384
2017-02-15T15:50:35.291Z,1340
2017-02-15T15:51:48.409Z,1288
2017-02-15T15:53:01.563Z,1244
2017-02-15T15:54:14.283Z,1196
2017-02-15T15:55:27.024Z,1144
2017-02-15T15:56:39.767Z,1096
2017-02-15T15:57:52.863Z,1048
2017-02-15T15:59:06.003Z,996
2017-02-15T16:00:19.140Z,948
2017-02-15T16:01:31.843Z,900
2017-02-15T16:02:44.554Z,856
2017-02-15T16:03:57.325Z,808
2017-02-15T16:05:10.416Z,760
2017-02-15T16:06:23.510Z,716
2017-02-15T16:07:36.604Z,668
2017-02-15T16:08:49.684Z,624
2017-02-15T16:10:02.837Z,580
2017-02-15T16:11:15.968Z,536
2017-02-15T16:12:29.066Z,496
2017-02-15T16:13:42.206Z,456
2017-02-15T16:14:55.309Z,420
2017-02-15T16:16:08.020Z,384
2017-02-15T16:17:21.124Z,348
2017-02-15T16:18:34.068Z,316
2017-02-15T16:19:46.781Z,280
2017-02-15T16:20:59.884Z,252
2017-02-15T16:22:12.980Z,224
2017-02-15T16:23:26.110Z,200
2017-02-15T16:24:39.248Z,176
2017-02-15T16:25:51.912Z,152
2017-02-15T16:27:04.614Z,128
2017-02-15T16:28:17.368Z,116
2017-02-15T16:29:30.481Z,96
2017-02-15T16:30:43.610Z,80
2017-02-15T16:31:55.966Z,72
2017-02-15T16:33:09.107Z,60
2017-02-15T16:34:21.773Z,48
2017-02-15T16:35:34.543Z,40
2017-02-15T16:36:47.687Z,32
2017-02-15T16:38:00.861Z,28
2017-02-15T16:39:13.941Z,24
2017-02-15T16:40:27.112Z,20
2017-02-15T16:41:40.222Z,16
2017-02-15T16:42:53.369Z,12
2017-02-15T16:44:06.489Z,12
2017-02-15T16:45:19.202Z,8
2017-02-15T16:46:31.931Z,4
2017-02-15T16:47:45.024Z,8
2017-02-15T16:48:58.122Z,4
2017-02-15T16:50:11.237Z,4
2017-02-15T16:51:24.355Z,4